METAR Data
IDs: Format: Raw Decoded Include TAF

Data at: 0810 UTC 07 Apr 2020

KCWF 070755Z AUTO 14004KT 10SM OVC007 22/21 A3002 RMK AO2 T02170210
KCWF 070735Z AUTO 13006KT 10SM OVC009 22/21 A3001 RMK AO2 T02170210
KCWF 070715Z AUTO 13005KT 10SM OVC011 22/21 A3001 RMK AO2 T02160209
KCWF 070655Z AUTO 14004KT 10SM SCT010 OVC013 21/21 A3002 RMK AO2 T02150208
KCWF 070635Z AUTO 14006KT 10SM SCT015 BKN027 OVC041 21/21 A3002 RMK AO2 T02130206
KCWF 070615Z AUTO 14006KT 10SM SCT015 BKN027 OVC039 21/21 A3002 RMK AO2 T02140206
KCWF 070555Z AUTO 13006KT 10SM SCT015 SCT021 OVC039 21/21 A3002 RMK AO2 T02130206 10218 20211
KCWF 070535Z AUTO 13005KT 10SM BKN021 OVC035 21/20 A3002 RMK AO2 T02110204
KCWF 070515Z AUTO 13006KT 10SM BKN019 OVC033 21/20 A3002 RMK AO2
KCWF 070455Z AUTO 13006KT 10SM OVC017 21/20 A3002 RMK AO2 T02130204
KCWF 070435Z AUTO 13006KT 10SM OVC017 21/20 A3002 RMK AO2 T02140205
KCWF 070415Z AUTO 13006KT 10SM OVC017 21/21 A3004 RMK AO2 T02150205
KCWF 070355Z AUTO 13007KT 10SM OVC017 21/21 A3004 RMK AO2 T02150206
KCWF 070335Z AUTO 14005KT 10SM OVC017 21/21 A3004 RMK AO2 T02140206
KCWF 070315Z AUTO 13005KT 10SM -RA OVC017 21/21 A3003 RMK AO2 T02130207
KCWF 070250Z 12006KT 10SM OVC017 21/21 A3003 RMK LAST
KCWF 070150Z 15005KT 10SM OVC017 22/21 A3002
KCWF 070055Z 11005KT 10SM OVC019 22/21 A3000
KCWF 062350Z 14004KT 10SM SCT010 OVC017 22/21 A3000
KCWF 062250Z 12007KT 10SM SCT013 OVC019 23/21 A2999
KCWF 062150Z 12008KT 10SM OVC019 23/21 A2999
KCWF 062050Z 12004KT 10SM OVC019 22/21 A3001
KCWF 061955Z 14008KT 10SM OVC023 22/21 A3003
KCWF 061853Z 13010G15KT 10SM OVC023 24/20 A3003
KCWF 061750Z 16012KT 10SM SKC 25/19 A3004
KCWF 061647Z 12011KT 10SM SKC 26/19 A3006
KCWF 061547Z 13009KT 10SM SKC 24/18 A3006
KCWF 061455Z 10010KT 10SM SKC 23/18 A3006
KCWF 061355Z 07005KT 10SM SKC 20/17 A3001
KCWF 061250Z 07005KT 10SM SKC 19/17 A3002
KCWF 061150Z 00000KT 10SM SKC 18/17 A3001
KCWF 061100Z 00000KT 10SM SKC 18/17 A3000
KCWF 061035Z AUTO 07005KT 10SM CLR 18/17 A2999 RMK AO2 T01830173
KCWF 061015Z AUTO 07003KT 10SM CLR 18/17 A3000 RMK AO2
KCWF 060955Z AUTO 06005KT 10SM CLR 18/17 A2999 RMK AO2 T01840174
KCWF 060935Z AUTO 04004KT 10SM CLR 18/18 A3000 RMK AO2 T01840177
KCWF 060915Z AUTO 00000KT 10SM CLR 18/17 A3000 RMK AO2 T01800174
KCWF 060855Z AUTO 00000KT 10SM CLR 18/17 A3000 RMK AO2 T01770171
KCWF 060835Z AUTO 00000KT 10SM CLR 18/17 A3001 RMK AO2 T01760171
KCWF 060815Z AUTO 06004KT 10SM CLR 18/17 A3001 RMK AO2 T01830174
KCWF 060755Z AUTO 04003KT 10SM CLR 18/18 A3002 RMK AO2 T01850176
KCWF 060735Z AUTO 04003KT 10SM CLR 19/18 A3002 RMK AO2 T01880178
KCWF 060715Z AUTO 05003KT 10SM CLR 19/18 A3002 RMK AO2 T01890177
KCWF 060655Z AUTO 04003KT 10SM CLR 19/18 A3002 RMK AO2 T01890178
KCWF 060635Z AUTO 03003KT 10SM CLR 19/18 A3003 RMK AO2 T01900178
KCWF 060615Z AUTO 00000KT 10SM CLR 19/18 A3003 RMK AO2 T01920176
KCWF 060555Z AUTO 00000KT 10SM CLR 19/18 A3003 RMK AO2 T01880176 10242 20182
KCWF 060535Z AUTO 00000KT 10SM CLR 19/18 A3004 RMK AO2 T01920178
KCWF 060515Z AUTO 00000KT 10SM CLR 19/17 A3003 RMK AO2 T01910175
KCWF 060455Z AUTO 00000KT 10SM CLR 19/17 A3003 RMK AO2 T01920175
KCWF 060435Z AUTO 15003KT 10SM CLR 19/17 A3003 RMK AO2 T01860175
KCWF 060415Z AUTO 15003KT 10SM CLR 20/18 A3004 RMK AO2 T01950175
KCWF 060355Z AUTO 00000KT 10SM CLR 19/17 A3004 RMK AO2 T01920175
KCWF 060335Z AUTO 18005KT 10SM CLR 21/17 A3004 RMK AO2 T02090175
KCWF 060315Z AUTO 17005KT 10SM CLR 20/18 A3003 RMK AO2 T01950176
KCWF 060250Z 18003KT 10SM SKC 21/17 A3002 RMK LAST
KCWF 060150Z 15007KT 10SM OVC050 22/17 A3001
KCWF 060050Z 00000KT 10SM SKC 23/16 A3000
KCWF 052350Z 05006KT 10SM SKC 24/16 A2999
KCWF 052250Z 06008KT 10SM SCT045 26/16 A2997
KCWF 052150Z 06006KT 10SM SCT045 26/15 A2998
KCWF 052055Z 08008KT 10SM SCT044 26/16 A2999